createdAt,value
2022-12-06T00:01:32.582Z,37.10
2022-12-06T00:04:03.446Z,35.30
2022-12-06T00:06:33.850Z,37.13
2022-12-06T00:09:01.434Z,44.40
2022-12-06T00:11:36.556Z,35.37
2022-12-06T00:14:07.337Z,35.57
2022-12-06T00:16:35.245Z,35.50
2022-12-06T00:19:04.266Z,38.50
2022-12-06T00:21:36.859Z,34.47
2022-12-06T00:24:13.395Z,39.40
2022-12-06T00:26:44.185Z,43.17
2022-12-06T00:29:18.550Z,35.23
2022-12-06T00:31:46.039Z,37.90
2022-12-06T00:34:13.091Z,35.47
2022-12-06T00:36:42.474Z,36.80
2022-12-06T00:39:15.917Z,36.63
2022-12-06T00:41:44.222Z,35.47
2022-12-06T00:44:12.238Z,44.23
2022-12-06T00:46:40.099Z,36.20
2022-12-06T00:49:09.348Z,34.47
2022-12-06T00:51:37.367Z,37.43
2022-12-06T00:54:05.541Z,37.30
2022-12-06T00:56:34.455Z,35.20
2022-12-06T00:59:01.484Z,38.17
2022-12-06T01:01:31.618Z,34.30
2022-12-06T01:04:01.795Z,36.33
2022-12-06T01:06:32.598Z,34.43
2022-12-06T01:09:05.326Z,41.37
2022-12-06T01:11:33.366Z,35.27
2022-12-06T01:14:00.491Z,32.20
2022-12-06T01:16:30.126Z,41.73
2022-12-06T01:19:01.456Z,34.63
2022-12-06T01:21:29.494Z,44.20
2022-12-06T01:23:57.416Z,36.43
2022-12-06T01:26:27.686Z,36.60
2022-12-06T01:28:55.407Z,39.23
2022-12-06T01:31:22.816Z,37.00
2022-12-06T01:33:49.873Z,35.07
2022-12-06T01:36:23.255Z,43.23
2022-12-06T01:38:52.773Z,35.57
2022-12-06T01:41:22.225Z,39.37
2022-12-06T01:43:49.892Z,36.10
2022-12-06T01:46:42.038Z,39.57
2022-12-06T01:49:29.573Z,40.73
2022-12-06T01:52:05.986Z,37.13
2022-12-06T01:54:33.803Z,44.97
2022-12-06T01:57:05.096Z,36.90
2022-12-06T01:59:32.138Z,38.77
2022-12-06T02:01:59.398Z,40.17
2022-12-06T02:04:29.054Z,40.50
2022-12-06T02:06:57.558Z,36.63
2022-12-06T02:09:26.899Z,42.13
2022-12-06T02:11:53.916Z,41.20
2022-12-06T02:14:27.471Z,40.23
2022-12-06T02:17:18.922Z,41.17
2022-12-06T02:20:11.830Z,42.50
2022-12-06T02:23:02.630Z,41.87
2022-12-06T02:25:57.187Z,38.83
2022-12-06T02:28:52.105Z,40.03
2022-12-06T02:31:37.110Z,40.67
2022-12-06T02:34:18.189Z,43.63
2022-12-06T02:37:00.813Z,43.13
2022-12-06T02:39:38.307Z,43.37
2022-12-06T02:42:56.981Z,36.27
2022-12-06T02:45:30.053Z,39.50
2022-12-06T02:48:01.629Z,40.70
2022-12-06T02:50:37.771Z,42.70
2022-12-06T02:53:09.486Z,40.80
2022-12-06T02:55:37.091Z,40.47
2022-12-06T02:58:04.114Z,43.10
2022-12-06T03:00:44.340Z,43.73
2022-12-06T03:03:46.590Z,41.83
2022-12-06T03:06:51.005Z,35.70
2022-12-06T03:09:42.171Z,39.67
2022-12-06T03:12:24.916Z,42.93
2022-12-06T03:15:20.124Z,36.60
2022-12-06T03:17:50.015Z,47.43
2022-12-06T03:20:26.342Z,41.47
2022-12-06T03:23:05.329Z,45.73
2022-12-06T03:25:35.484Z,41.47
2022-12-06T03:28:05.406Z,47.43
2022-12-06T03:30:34.642Z,44.40
2022-12-06T03:33:02.878Z,47.87
2022-12-06T03:35:34.243Z,38.43
2022-12-06T03:38:14.880Z,45.20
2022-12-06T03:40:47.186Z,42.97
2022-12-06T03:43:14.938Z,42.20
2022-12-06T03:45:59.545Z,43.87
2022-12-06T03:48:40.209Z,44.27
2022-12-06T03:51:17.726Z,36.73
2022-12-06T03:53:51.920Z,42.80
2022-12-06T03:56:19.504Z,45.57
2022-12-06T03:58:46.609Z,41.63
2022-12-06T04:01:14.489Z,41.03
2022-12-06T04:03:41.758Z,42.43
2022-12-06T04:06:10.475Z,44.87
2022-12-06T04:08:37.582Z,41.30
2022-12-06T04:11:05.282Z,44.53
2022-12-06T04:13:32.629Z,46.23
2022-12-06T04:16:01.750Z,38.10
2022-12-06T04:18:29.180Z,44.63
2022-12-06T04:21:18.892Z,40.97
2022-12-06T04:23:51.676Z,43.30
2022-12-06T04:26:22.285Z,37.97
2022-12-06T04:29:10.163Z,37.07
2022-12-06T04:31:57.713Z,40.17
2022-12-06T04:34:43.278Z,42.23
2022-12-06T04:37:30.433Z,42.93
2022-12-06T04:39:57.611Z,40.30
2022-12-06T04:42:43.491Z,44.20
2022-12-06T04:45:11.018Z,38.80
2022-12-06T04:47:37.917Z,42.37
2022-12-06T04:50:05.524Z,40.87
2022-12-06T04:52:35.685Z,45.67
2022-12-06T04:55:05.095Z,35.93
2022-12-06T04:57:32.162Z,39.13
2022-12-06T04:59:59.392Z,41.17
2022-12-06T05:02:26.588Z,37.00
2022-12-06T05:04:53.556Z,40.83
2022-12-06T05:07:20.496Z,36.37
2022-12-06T05:09:47.454Z,40.60
2022-12-06T05:12:14.419Z,38.40
2022-12-06T05:14:41.381Z,35.67
2022-12-06T05:17:08.348Z,41.67
2022-12-06T05:19:35.359Z,43.30
2022-12-06T05:22:02.287Z,38.83
2022-12-06T05:24:29.239Z,41.77
2022-12-06T05:26:56.161Z,38.73
2022-12-06T05:29:23.062Z,40.30
2022-12-06T05:31:50.144Z,40.10
2022-12-06T05:34:17.188Z,36.70
2022-12-06T05:36:45.959Z,40.03
2022-12-06T05:39:13.001Z,39.83
2022-12-06T05:41:39.941Z,37.00
2022-12-06T05:44:06.948Z,37.33
2022-12-06T05:46:33.893Z,43.30
2022-12-06T05:49:00.825Z,40.10
2022-12-06T05:51:27.757Z,38.80
2022-12-06T05:53:54.875Z,37.93
2022-12-06T05:56:21.874Z,37.37
2022-12-06T05:58:49.103Z,38.37
2022-12-06T06:01:16.072Z,39.47
2022-12-06T06:03:47.401Z,39.77
2022-12-06T06:06:15.197Z,44.03
2022-12-06T06:08:42.268Z,47.37
2022-12-06T06:11:09.308Z,41.93
2022-12-06T06:13:36.263Z,45.37
2022-12-06T06:16:03.306Z,41.20
2022-12-06T06:18:30.273Z,37.07
2022-12-06T06:21:00.855Z,41.10
2022-12-06T06:23:28.731Z,34.17
2022-12-06T06:25:56.094Z,36.13
2022-12-06T06:28:23.781Z,37.47
2022-12-06T06:30:51.101Z,34.37
2022-12-06T06:33:18.119Z,33.47
2022-12-06T06:35:45.101Z,35.73
2022-12-06T06:38:12.813Z,38.00
2022-12-06T06:40:39.756Z,34.90
2022-12-06T06:43:20.164Z,33.73
2022-12-06T06:46:03.920Z,34.27
2022-12-06T06:48:35.513Z,32.07
2022-12-06T06:51:09.030Z,33.73
2022-12-06T06:53:36.955Z,32.17
2022-12-06T06:56:04.638Z,32.43
2022-12-06T06:58:32.054Z,32.07
2022-12-06T07:01:01.898Z,27.63
2022-12-06T07:03:29.460Z,28.37
2022-12-06T07:06:04.071Z,32.40
2022-12-06T07:08:32.264Z,29.23
2022-12-06T07:10:59.621Z,28.73
2022-12-06T07:13:28.685Z,32.07
2022-12-06T07:15:56.259Z,27.63
2022-12-06T07:18:23.418Z,30.53
2022-12-06T07:20:57.981Z,30.00
2022-12-06T07:23:24.974Z,28.47
2022-12-06T07:26:11.188Z,30.37
2022-12-06T07:28:40.842Z,28.60
2022-12-06T07:31:23.934Z,26.90
2022-12-06T07:33:57.823Z,29.27
2022-12-06T07:36:26.180Z,27.67
2022-12-06T07:38:56.217Z,31.17
2022-12-06T07:41:45.761Z,27.23
2022-12-06T07:44:34.121Z,28.43
2022-12-06T07:47:01.727Z,31.10
2022-12-06T07:49:29.078Z,27.83
2022-12-06T07:51:57.121Z,27.20
2022-12-06T07:54:24.845Z,28.50
2022-12-06T07:56:52.246Z,28.03
2022-12-06T07:59:19.293Z,27.10
2022-12-06T08:01:46.319Z,24.10
2022-12-06T08:04:13.807Z,25.20
2022-12-06T08:06:40.952Z,23.57
2022-12-06T08:09:08.955Z,25.00
2022-12-06T08:11:36.479Z,24.30
2022-12-06T08:14:04.844Z,24.83
2022-12-06T08:16:31.984Z,22.07
2022-12-06T08:18:59.198Z,22.23
2022-12-06T08:21:26.818Z,25.03
2022-12-06T08:23:54.856Z,24.93
2022-12-06T08:26:22.253Z,26.80
2022-12-06T08:28:49.704Z,33.00
2022-12-06T08:31:21.974Z,25.47
2022-12-06T08:33:49.386Z,25.03
2022-12-06T08:36:22.395Z,23.27
2022-12-06T08:38:51.067Z,27.30
2022-12-06T08:41:36.794Z,26.87
2022-12-06T08:44:04.912Z,29.60
2022-12-06T08:46:34.321Z,32.63
2022-12-06T08:49:01.752Z,32.03
2022-12-06T08:51:29.048Z,33.20
2022-12-06T08:53:56.682Z,29.60
2022-12-06T08:56:24.210Z,27.97
2022-12-06T08:58:53.888Z,27.17
2022-12-06T09:01:31.232Z,27.77
2022-12-06T09:04:02.689Z,30.27
2022-12-06T09:06:30.403Z,35.77
2022-12-06T09:08:58.503Z,30.33
2022-12-06T09:11:26.583Z,31.90
2022-12-06T09:13:53.541Z,33.63
2022-12-06T09:16:23.537Z,38.10
2022-12-06T09:18:51.643Z,34.53
2022-12-06T09:21:23.248Z,31.53
2022-12-06T09:23:51.168Z,34.27
2022-12-06T09:26:18.413Z,32.53
2022-12-06T09:28:50.671Z,34.70
2022-12-06T09:31:19.308Z,36.43
2022-12-06T09:33:46.955Z,32.90
2022-12-06T09:36:30.593Z,33.67
2022-12-06T09:39:23.387Z,36.00
2022-12-06T09:42:13.900Z,36.43
2022-12-06T09:45:02.967Z,35.13
2022-12-06T09:47:51.660Z,30.90
2022-12-06T09:50:47.616Z,33.30
2022-12-06T09:53:34.438Z,31.53
2022-12-06T09:56:36.116Z,36.63
2022-12-06T09:59:17.783Z,36.13
2022-12-06T10:02:16.019Z,35.50
2022-12-06T10:05:34.745Z,38.57
2022-12-06T10:08:58.532Z,35.87
2022-12-06T10:11:45.989Z,34.87
2022-12-06T10:15:01.214Z,36.60
2022-12-06T10:18:01.632Z,38.87
2022-12-06T10:20:40.632Z,39.00
2022-12-06T10:23:22.796Z,39.60
2022-12-06T10:26:25.115Z,49.13
2022-12-06T10:29:28.810Z,47.17
2022-12-06T10:32:15.320Z,43.73
2022-12-06T10:34:55.706Z,53.93
2022-12-06T10:37:35.879Z,46.10
2022-12-06T10:40:17.860Z,43.30
2022-12-06T10:43:12.073Z,43.63
2022-12-06T10:46:09.185Z,49.20
2022-12-06T10:48:47.722Z,48.80
2022-12-06T10:51:25.174Z,43.83
2022-12-06T10:54:05.502Z,43.60
2022-12-06T10:56:41.829Z,53.00
2022-12-06T10:59:54.378Z,46.83
2022-12-06T11:03:03.807Z,50.17
2022-12-06T11:05:42.455Z,53.23
2022-12-06T11:08:24.240Z,49.23
2022-12-06T11:10:55.324Z,48.27
2022-12-06T11:13:51.117Z,56.30
2022-12-06T11:16:28.313Z,44.67
2022-12-06T11:19:02.585Z,40.00
2022-12-06T11:21:52.320Z,41.43
2022-12-06T11:24:31.306Z,43.93
2022-12-06T11:27:15.832Z,41.10
2022-12-06T11:29:47.441Z,45.93
2022-12-06T11:32:16.477Z,41.23
2022-12-06T11:34:51.274Z,48.13
2022-12-06T11:37:21.794Z,52.60
2022-12-06T11:39:54.626Z,42.30
2022-12-06T11:42:27.851Z,48.13
2022-12-06T11:45:21.825Z,44.57
2022-12-06T11:47:48.823Z,44.00
2022-12-06T11:50:19.514Z,44.97
2022-12-06T11:53:19.193Z,44.67
2022-12-06T11:55:54.049Z,43.50
2022-12-06T11:58:38.412Z,51.33
2022-12-06T12:01:10.982Z,40.00
2022-12-06T12:03:41.932Z,40.63
2022-12-06T12:06:26.336Z,37.63
2022-12-06T12:09:01.873Z,43.97
2022-12-06T12:11:40.215Z,47.87
2022-12-06T12:14:24.207Z,40.83
2022-12-06T12:17:01.462Z,42.33
2022-12-06T12:20:06.541Z,39.83
2022-12-06T12:22:42.954Z,43.07
2022-12-06T12:25:30.067Z,49.97
2022-12-06T12:28:21.675Z,48.17
2022-12-06T12:31:00.395Z,45.53
2022-12-06T12:33:28.940Z,44.07
2022-12-06T12:36:29.177Z,52.83
2022-12-06T12:39:01.210Z,52.70
2022-12-06T12:41:32.454Z,47.50
2022-12-06T12:44:35.743Z,52.97
2022-12-06T12:47:20.008Z,52.67
2022-12-06T12:50:13.374Z,49.27
2022-12-06T12:52:42.700Z,52.30
2022-12-06T12:55:29.641Z,55.37
2022-12-06T12:58:00.798Z,54.83
2022-12-06T13:00:38.861Z,56.50
2022-12-06T13:03:50.306Z,54.67
2022-12-06T13:06:27.724Z,49.57
2022-12-06T13:08:59.399Z,53.43
2022-12-06T13:11:27.299Z,48.93
2022-12-06T13:13:56.451Z,54.33
2022-12-06T13:16:35.934Z,58.90
2022-12-06T13:19:03.543Z,48.00
2022-12-06T13:21:39.379Z,49.10
2022-12-06T13:24:18.186Z,50.93
2022-12-06T13:27:08.511Z,52.83
2022-12-06T13:29:41.554Z,55.77
2022-12-06T13:32:53.722Z,51.53
2022-12-06T13:35:30.627Z,51.83
2022-12-06T13:38:25.979Z,53.40
2022-12-06T13:40:56.566Z,53.50
2022-12-06T13:43:26.393Z,57.63
2022-12-06T13:46:24.123Z,56.07
2022-12-06T13:49:19.553Z,52.03
2022-12-06T13:51:47.761Z,65.17
2022-12-06T13:54:15.508Z,55.83
2022-12-06T13:56:43.163Z,60.47
2022-12-06T13:59:13.148Z,53.73
2022-12-06T14:01:51.345Z,56.30
2022-12-06T14:04:24.620Z,63.30
2022-12-06T14:09:52.848Z,52.63
2022-12-06T14:12:28.509Z,52.63
2022-12-06T14:15:06.191Z,58.40
2022-12-06T14:20:31.984Z,53.10
2022-12-06T14:22:59.653Z,50.37
2022-12-06T14:25:30.426Z,49.63
2022-12-06T14:28:13.701Z,52.00
2022-12-06T14:30:40.888Z,46.03
2022-12-06T14:33:23.620Z,47.93
2022-12-06T14:35:53.783Z,47.53
2022-12-06T14:38:30.539Z,48.47
2022-12-06T14:41:16.433Z,50.93
2022-12-06T14:43:48.028Z,47.33
2022-12-06T14:46:17.858Z,53.20
2022-12-06T14:49:04.498Z,51.10
2022-12-06T14:51:40.762Z,48.37
2022-12-06T14:54:19.723Z,51.40
2022-12-06T14:56:47.789Z,55.07
2022-12-06T14:59:39.094Z,51.07
2022-12-06T15:02:25.812Z,54.03
2022-12-06T15:04:53.523Z,55.37
2022-12-06T15:07:49.941Z,51.03
2022-12-06T15:10:25.328Z,50.90
2022-12-06T15:12:55.647Z,47.17
2022-12-06T15:15:46.462Z,43.90
2022-12-06T15:18:26.453Z,48.87
2022-12-06T15:20:54.134Z,52.87
2022-12-06T15:23:36.382Z,43.97
2022-12-06T15:26:12.023Z,48.20
2022-12-06T15:28:39.645Z,44.07
2022-12-06T15:31:15.846Z,47.43
2022-12-06T15:33:42.866Z,46.10
2022-12-06T15:36:22.213Z,45.97
2022-12-06T15:38:49.816Z,42.20
2022-12-06T15:41:26.573Z,42.47
2022-12-06T15:43:54.798Z,41.43
2022-12-06T15:46:28.738Z,47.07
2022-12-06T15:48:56.473Z,39.73
2022-12-06T15:51:27.115Z,47.43
2022-12-06T16:14:21.374Z,34.87
2022-12-06T16:16:48.386Z,42.30
2022-12-06T16:19:15.394Z,34.43
2022-12-06T16:21:58.092Z,37.70
2022-12-06T16:24:25.070Z,37.80
2022-12-06T16:26:52.095Z,37.07
2022-12-06T16:29:25.029Z,36.67
2022-12-06T16:31:53.083Z,38.33
2022-12-06T16:34:20.599Z,41.33
2022-12-06T16:37:03.875Z,41.40
2022-12-06T16:39:33.705Z,37.70
2022-12-06T16:42:01.560Z,39.17
2022-12-06T16:44:28.795Z,35.80
2022-12-06T16:46:55.984Z,43.73
2022-12-06T16:49:45.913Z,39.97
2022-12-06T16:52:14.919Z,33.00
2022-12-06T16:54:42.418Z,36.37
2022-12-06T16:57:14.365Z,35.57
2022-12-06T16:59:42.773Z,34.37
2022-12-06T17:02:27.118Z,36.77
2022-12-06T17:04:56.088Z,33.37
2022-12-06T17:07:23.584Z,31.57
2022-12-06T17:09:50.590Z,33.27
2022-12-06T17:12:18.225Z,32.50
2022-12-06T17:14:45.445Z,31.47
2022-12-06T17:17:18.956Z,34.03
2022-12-06T17:19:46.260Z,32.63
2022-12-06T17:22:18.991Z,32.47
2022-12-06T17:24:46.119Z,38.77
2022-12-06T17:27:15.078Z,30.63
2022-12-06T17:29:43.581Z,35.20
2022-12-06T17:32:11.552Z,33.03
2022-12-06T17:34:38.828Z,31.80
2022-12-06T17:37:06.226Z,37.03
2022-12-06T17:39:33.795Z,32.93
2022-12-06T17:42:19.261Z,32.37
2022-12-06T17:44:46.356Z,33.93
2022-12-06T17:47:13.387Z,35.20
2022-12-06T17:49:40.346Z,32.40
2022-12-06T17:52:07.394Z,32.30
2022-12-06T17:54:34.351Z,31.67
2022-12-06T17:57:01.419Z,32.13
2022-12-06T17:59:31.879Z,33.23
2022-12-06T18:02:17.362Z,33.43
2022-12-06T18:04:46.454Z,32.80
2022-12-06T18:07:14.134Z,35.30
2022-12-06T18:09:41.320Z,35.07
2022-12-06T18:12:10.508Z,28.60
2022-12-06T18:14:37.634Z,31.10
2022-12-06T18:17:04.949Z,31.93
2022-12-06T18:19:32.193Z,37.43
2022-12-06T18:21:59.181Z,30.97
2022-12-06T18:24:31.784Z,30.00
2022-12-06T18:27:01.531Z,33.60
2022-12-06T18:29:28.545Z,34.47
2022-12-06T18:31:55.750Z,33.33
2022-12-06T18:34:23.005Z,34.50
2022-12-06T18:36:51.051Z,36.07
2022-12-06T18:39:24.546Z,38.90
2022-12-06T18:41:53.781Z,32.37
2022-12-06T18:44:21.141Z,32.40
2022-12-06T18:46:48.436Z,38.37
2022-12-06T18:49:15.757Z,37.83
2022-12-06T18:51:42.885Z,45.73
2022-12-06T18:54:13.772Z,67.40
2022-12-06T18:56:42.891Z,59.67
2022-12-06T18:59:12.130Z,73.77
2022-12-06T19:01:41.021Z,48.70
2022-12-06T19:04:11.101Z,51.87
2022-12-06T19:06:38.658Z,48.03
2022-12-06T19:09:12.167Z,43.50
2022-12-06T19:11:42.104Z,43.40
2022-12-06T19:14:09.181Z,50.83
2022-12-06T19:16:44.421Z,48.73
2022-12-06T19:19:24.079Z,46.30
2022-12-06T19:21:53.873Z,40.03
2022-12-06T19:24:24.846Z,34.30
2022-12-06T19:26:54.062Z,34.00
2022-12-06T19:29:22.112Z,35.47
2022-12-06T19:31:49.584Z,35.40
2022-12-06T19:34:22.738Z,35.60
2022-12-06T19:36:52.193Z,34.90
2022-12-06T19:39:20.519Z,33.40
2022-12-06T19:42:07.530Z,36.57
2022-12-06T19:44:35.067Z,40.80
2022-12-06T19:47:02.196Z,38.83
2022-12-06T19:49:29.297Z,35.03
2022-12-06T19:51:56.432Z,41.07
2022-12-06T19:54:29.986Z,36.03
2022-12-06T19:56:59.318Z,35.27
2022-12-06T19:59:33.822Z,39.70
2022-12-06T20:02:01.503Z,36.77
2022-12-06T20:04:37.994Z,38.57
2022-12-06T20:07:05.799Z,40.57
2022-12-06T20:09:33.666Z,38.53
2022-12-06T20:12:03.221Z,37.30
2022-12-06T20:14:45.007Z,39.20
2022-12-06T20:17:20.646Z,37.97
2022-12-06T20:19:49.267Z,36.30
2022-12-06T20:22:22.727Z,40.43
2022-12-06T20:24:50.168Z,35.60
2022-12-06T20:27:17.142Z,39.63
2022-12-06T20:29:44.203Z,46.30
2022-12-06T20:32:11.560Z,41.67
2022-12-06T20:34:38.548Z,40.23
2022-12-06T20:37:07.022Z,35.93
2022-12-06T20:39:35.956Z,40.40
2022-12-06T20:42:05.804Z,42.77
2022-12-06T20:44:33.182Z,39.83
2022-12-06T20:47:00.446Z,39.13
2022-12-06T20:49:27.523Z,41.57
2022-12-06T20:51:54.617Z,41.40
2022-12-06T20:54:22.344Z,44.50
2022-12-06T20:56:52.135Z,40.00
2022-12-06T20:59:20.013Z,39.63
2022-12-06T21:01:47.199Z,41.00
2022-12-06T21:04:15.029Z,41.47
2022-12-06T21:06:42.559Z,44.23
2022-12-06T21:09:09.570Z,36.63
2022-12-06T21:11:36.922Z,38.00
2022-12-06T21:14:05.553Z,41.13
2022-12-06T21:16:35.442Z,37.40
2022-12-06T21:19:06.132Z,36.83
2022-12-06T21:21:39.892Z,42.20
2022-12-06T21:24:12.085Z,44.93
2022-12-06T21:26:39.194Z,46.40
2022-12-06T21:29:06.691Z,42.90
2022-12-06T21:31:41.061Z,47.60
2022-12-06T21:34:08.516Z,43.70
2022-12-06T21:36:35.476Z,42.13
2022-12-06T21:39:02.432Z,43.50
2022-12-06T21:41:29.476Z,42.77
2022-12-06T21:43:56.822Z,38.57
2022-12-06T21:46:26.908Z,35.17
2022-12-06T21:49:00.091Z,36.27
2022-12-06T21:51:30.533Z,38.53
2022-12-06T21:53:58.636Z,38.93
2022-12-06T21:56:29.728Z,36.97
2022-12-06T21:58:59.991Z,36.87
2022-12-06T22:01:29.082Z,34.77
2022-12-06T22:04:01.086Z,36.93
2022-12-06T22:06:28.110Z,35.23
2022-12-06T22:09:02.575Z,37.33
2022-12-06T22:11:30.617Z,36.90
2022-12-06T22:13:59.738Z,37.50
2022-12-06T22:16:28.111Z,28.90
2022-12-06T22:18:55.516Z,31.57
2022-12-06T22:21:26.613Z,28.23
2022-12-06T22:23:54.728Z,28.17
2022-12-06T22:26:23.932Z,23.93
2022-12-06T22:28:51.574Z,26.40
2022-12-06T22:31:28.334Z,27.03
2022-12-06T22:33:57.497Z,22.67
2022-12-06T22:36:27.090Z,27.63
2022-12-06T22:39:00.575Z,25.07
2022-12-06T22:41:28.301Z,24.17
2022-12-06T22:44:04.574Z,23.77
2022-12-06T22:46:33.081Z,21.80
2022-12-06T22:49:01.396Z,22.30
2022-12-06T22:51:35.061Z,22.47
2022-12-06T22:54:10.307Z,21.87
2022-12-06T22:56:39.732Z,20.43
2022-12-06T22:59:08.986Z,20.47
2022-12-06T23:01:36.215Z,26.23
2022-12-06T23:04:06.680Z,23.00
2022-12-06T23:06:35.945Z,21.10
2022-12-06T23:09:07.789Z,20.20
2022-12-06T23:11:36.798Z,22.33
2022-12-06T23:14:04.585Z,20.73
2022-12-06T23:16:32.677Z,20.60
2022-12-06T23:19:02.024Z,20.73
2022-12-06T23:21:32.412Z,19.80
2022-12-06T23:24:04.323Z,24.63
2022-12-06T23:26:35.427Z,20.57
2022-12-06T23:29:02.706Z,21.30
2022-12-06T23:31:33.027Z,20.10
2022-12-06T23:34:30.058Z,17.40
2022-12-06T23:36:57.417Z,20.73
2022-12-06T23:39:24.455Z,19.80
2022-12-06T23:41:51.503Z,22.00
2022-12-06T23:44:18.568Z,22.33
2022-12-06T23:46:46.067Z,21.50
2022-12-06T23:49:21.942Z,22.27
2022-12-06T23:51:49.643Z,27.43
2022-12-06T23:54:18.002Z,27.93
2022-12-06T23:56:45.238Z,22.27
2022-12-06T23:59:14.756Z,23.97
